首页
METAR-TAF:

METAR-TAF

机场 :

库拉索, 荷属安的列斯

庫拉索國際機場

纬度: 12-12N, 经度: 068-58W, 海拔: 9米

当前天气观测

该预报发布于1小时和1分钟前的14:00 UTC
风速14节,风向
温度 29°C
湿度 70%
气压 1015 hPa
能见度10公里或以上
散云层高于2100英尺

METAR: TNCC 201400Z 10014KT 9999 SCT021 29/23 Q1015 NOSIG

时间: 11:01 (15:01 UTC)

预报

该预报发布于5小时和1分钟前的10:00 UTC
预报有效从20日的 12点(UTC)到 21日的 12点(UTC)
风速15节,风向
能见度10公里或以上
散云层高于2000英尺

TAF: TNCC 201000Z 2012/2112 10015KT 9999 SCT020

超过4000个机场的气象观测和天气预报(METAR&TAF报告)。

可查询的气象台以黄色和红色小点在地图上表示。

将鼠标移到小点上方,可查看气象台名称。

然后点击查看天气观测和预报。

如需切换地图:点击带黑十字的绿色按钮放大地图;点击带横线的绿色按钮缩小地图;或者点击绿色箭头查看邻近地区的地图。


METAR-TAF: